Overton, Texas
Current Conditions -  °F | °C
As of 6:55 AM on Wednesday 26 Nov 2014 (Local Time) from KRFI Reporting Station
Clear Clear  
Wind Chill: 40°   Ceiling: Unl
Heat Index: 40°   Visibility: 10mi
Dew Point: 32°   Wind: 3mph
Humidity: 74%   Direction: 180°S
Pressure: 30.12"   Gusts: NA
Location:  32.27°N, 94.98°W
Report Text: KRFI 261255Z AUTO 18003KT 10SM CLR 05/00 A3012 RMK AO2 T00450002
Loading
Personal Weather Stations






























Interactive Weather Map New forecast layout! Learn more

10-Day Weather Forecast

Advertisements
Track Severe Weather on mobile